sensor_id;sensor_type;location;lat;lon;timestamp;P1;durP1;ratioP1;P2;durP2;ratioP2
68821;SDS011;55834;50.870;4.606;2022-12-24T00:02:10;17.50;;;3.73;;
68821;SDS011;55834;50.870;4.606;2022-12-24T00:04:36;13.77;;;2.10;;
68821;SDS011;55834;50.870;4.606;2022-12-24T00:07:01;9.07;;;2.23;;
68821;SDS011;55834;50.870;4.606;2022-12-24T00:09:27;14.48;;;2.65;;
68821;SDS011;55834;50.870;4.606;2022-12-24T00:11:52;14.67;;;3.13;;
68821;SDS011;55834;50.870;4.606;2022-12-24T00:14:17;20.00;;;3.80;;
68821;SDS011;55834;50.870;4.606;2022-12-24T00:16:43;10.23;;;2.50;;
68821;SDS011;55834;50.870;4.606;2022-12-24T00:19:08;9.80;;;2.30;;
68821;SDS011;55834;50.870;4.606;2022-12-24T00:21:33;13.00;;;2.63;;
68821;SDS011;55834;50.870;4.606;2022-12-24T00:23:58;18.70;;;4.23;;
68821;SDS011;55834;50.870;4.606;2022-12-24T00:26:27;10.27;;;2.20;;
68821;SDS011;55834;50.870;4.606;2022-12-24T00:28:52;16.25;;;2.78;;
68821;SDS011;55834;50.870;4.606;2022-12-24T00:31:17;12.93;;;2.20;;
68821;SDS011;55834;50.870;4.606;2022-12-24T00:33:44;16.95;;;2.92;;
68821;SDS011;55834;50.870;4.606;2022-12-24T00:36:10;11.95;;;2.15;;
68821;SDS011;55834;50.870;4.606;2022-12-24T00:38:36;13.05;;;3.70;;
68821;SDS011;55834;50.870;4.606;2022-12-24T00:41:02;12.32;;;2.50;;
68821;SDS011;55834;50.870;4.606;2022-12-24T00:45:55;15.07;;;1.95;;
68821;SDS011;55834;50.870;4.606;2022-12-24T00:48:20;17.35;;;2.83;;
68821;SDS011;55834;50.870;4.606;2022-12-24T00:50:47;24.67;;;4.65;;
68821;SDS011;55834;50.870;4.606;2022-12-24T00:53:12;14.05;;;2.28;;
68821;SDS011;55834;50.870;4.606;2022-12-24T00:55:38;14.43;;;2.77;;
68821;SDS011;55834;50.870;4.606;2022-12-24T00:58:03;16.17;;;3.13;;
68821;SDS011;55834;50.870;4.606;2022-12-24T01:00:28;15.90;;;2.40;;
68821;SDS011;55834;50.870;4.606;2022-12-24T01:02:54;15.70;;;2.90;;
68821;SDS011;55834;50.870;4.606;2022-12-24T01:05:19;18.00;;;3.53;;
68821;SDS011;55834;50.870;4.606;2022-12-24T01:07:45;14.75;;;3.47;;
68821;SDS011;55834;50.870;4.606;2022-12-24T01:10:12;12.55;;;2.60;;
68821;SDS011;55834;50.870;4.606;2022-12-24T01:12:38;14.73;;;3.63;;
68821;SDS011;55834;50.870;4.606;2022-12-24T01:15:04;17.85;;;2.78;;
68821;SDS011;55834;50.870;4.606;2022-12-24T01:17:30;12.98;;;2.30;;
68821;SDS011;55834;50.870;4.606;2022-12-24T01:22:22;10.17;;;3.33;;
68821;SDS011;55834;50.870;4.606;2022-12-24T01:24:47;15.23;;;2.47;;
68821;SDS011;55834;50.870;4.606;2022-12-24T01:27:13;15.68;;;2.92;;
68821;SDS011;55834;50.870;4.606;2022-12-24T01:29:38;13.63;;;3.10;;
68821;SDS011;55834;50.870;4.606;2022-12-24T01:32:03;9.23;;;1.65;;
68821;SDS011;55834;50.870;4.606;2022-12-24T01:34:29;11.45;;;1.73;;
68821;SDS011;55834;50.870;4.606;2022-12-24T01:36:54;13.48;;;3.10;;
68821;SDS011;55834;50.870;4.606;2022-12-24T01:39:20;12.53;;;1.60;;
68821;SDS011;55834;50.870;4.606;2022-12-24T01:41:45;7.37;;;1.30;;
68821;SDS011;55834;50.870;4.606;2022-12-24T01:44:30;7.25;;;0.90;;
68821;SDS011;55834;50.870;4.606;2022-12-24T01:49:31;6.95;;;1.08;;
68821;SDS011;55834;50.870;4.606;2022-12-24T01:52:00;4.97;;;0.70;;
68821;SDS011;55834;50.870;4.606;2022-12-24T01:54:30;4.20;;;1.67;;
68821;SDS011;55834;50.870;4.606;2022-12-24T01:57:04;4.95;;;1.35;;
68821;SDS011;55834;50.870;4.606;2022-12-24T01:59:33;9.15;;;1.70;;
68821;SDS011;55834;50.870;4.606;2022-12-24T02:02:01;12.77;;;3.05;;
68821;SDS011;55834;50.870;4.606;2022-12-24T02:04:29;4.38;;;1.27;;
68821;SDS011;55834;50.870;4.606;2022-12-24T02:07:00;7.15;;;1.10;;
68821;SDS011;55834;50.870;4.606;2022-12-24T02:09:26;11.93;;;1.60;;
68821;SDS011;55834;50.870;4.606;2022-12-24T02:11:52;11.10;;;2.58;;
68821;SDS011;55834;50.870;4.606;2022-12-24T02:14:17;11.60;;;2.38;;
68821;SDS011;55834;50.870;4.606;2022-12-24T02:25:04;12.95;;;3.25;;
68821;SDS011;55834;50.870;4.606;2022-12-24T02:33:24;12.60;;;2.65;;
68821;SDS011;55834;50.870;4.606;2022-12-24T02:38:58;18.95;;;2.90;;
68821;SDS011;55834;50.870;4.606;2022-12-24T02:41:34;13.43;;;2.65;;
68821;SDS011;55834;50.870;4.606;2022-12-24T02:44:22;11.50;;;3.30;;
68821;SDS011;55834;50.870;4.606;2022-12-24T02:46:51;17.83;;;3.47;;
68821;SDS011;55834;50.870;4.606;2022-12-24T02:49:17;10.63;;;2.75;;
68821;SDS011;55834;50.870;4.606;2022-12-24T02:51:42;6.43;;;1.42;;
68821;SDS011;55834;50.870;4.606;2022-12-24T02:54:08;13.90;;;2.40;;
68821;SDS011;55834;50.870;4.606;2022-12-24T03:01:43;6.77;;;1.73;;
68821;SDS011;55834;50.870;4.606;2022-12-24T03:07:17;13.98;;;3.13;;
68821;SDS011;55834;50.870;4.606;2022-12-24T03:12:53;8.40;;;1.88;;
68821;SDS011;55834;50.870;4.606;2022-12-24T03:15:23;10.18;;;1.92;;
68821;SDS011;55834;50.870;4.606;2022-12-24T03:17:52;13.27;;;2.58;;
68821;SDS011;55834;50.870;4.606;2022-12-24T03:20:32;12.85;;;3.38;;
68821;SDS011;55834;50.870;4.606;2022-12-24T03:23:00;12.30;;;2.20;;
68821;SDS011;55834;50.870;4.606;2022-12-24T03:25:27;15.52;;;3.42;;
68821;SDS011;55834;50.870;4.606;2022-12-24T03:27:53;14.02;;;3.25;;
68821;SDS011;55834;50.870;4.606;2022-12-24T03:30:21;8.02;;;2.17;;
68821;SDS011;55834;50.870;4.606;2022-12-24T03:32:46;10.05;;;2.35;;
68821;SDS011;55834;50.870;4.606;2022-12-24T03:35:12;7.80;;;2.35;;
68821;SDS011;55834;50.870;4.606;2022-12-24T03:37:37;15.70;;;3.78;;
68821;SDS011;55834;50.870;4.606;2022-12-24T03:40:05;9.20;;;2.83;;
68821;SDS011;55834;50.870;4.606;2022-12-24T03:42:31;12.40;;;2.53;;
68821;SDS011;55834;50.870;4.606;2022-12-24T03:44:57;15.82;;;2.78;;
68821;SDS011;55834;50.870;4.606;2022-12-24T03:47:22;12.27;;;2.60;;
68821;SDS011;55834;50.870;4.606;2022-12-24T03:49:47;15.47;;;3.03;;
68821;SDS011;55834;50.870;4.606;2022-12-24T03:52:13;10.50;;;3.40;;
68821;SDS011;55834;50.870;4.606;2022-12-24T03:54:38;10.23;;;2.63;;
68821;SDS011;55834;50.870;4.606;2022-12-24T03:57:03;13.77;;;3.27;;
68821;SDS011;55834;50.870;4.606;2022-12-24T03:59:29;9.27;;;2.53;;
68821;SDS011;55834;50.870;4.606;2022-12-24T04:01:54;14.13;;;2.93;;
68821;SDS011;55834;50.870;4.606;2022-12-24T04:04:19;17.50;;;2.87;;
68821;SDS011;55834;50.870;4.606;2022-12-24T04:06:45;14.77;;;3.00;;
68821;SDS011;55834;50.870;4.606;2022-12-24T04:09:10;8.97;;;1.70;;
68821;SDS011;55834;50.870;4.606;2022-12-24T04:11:35;25.13;;;4.03;;
68821;SDS011;55834;50.870;4.606;2022-12-24T04:14:01;19.27;;;3.33;;
68821;SDS011;55834;50.870;4.606;2022-12-24T04:16:26;16.98;;;2.55;;
68821;SDS011;55834;50.870;4.606;2022-12-24T04:18:51;11.03;;;3.23;;
68821;SDS011;55834;50.870;4.606;2022-12-24T04:21:17;14.57;;;2.33;;
68821;SDS011;55834;50.870;4.606;2022-12-24T04:23:42;16.85;;;3.33;;
68821;SDS011;55834;50.870;4.606;2022-12-24T04:26:09;13.95;;;2.03;;
68821;SDS011;55834;50.870;4.606;2022-12-24T04:28:36;11.10;;;2.08;;
68821;SDS011;55834;50.870;4.606;2022-12-24T04:31:07;11.00;;;1.85;;
68821;SDS011;55834;50.870;4.606;2022-12-24T04:33:35;15.07;;;2.50;;
68821;SDS011;55834;50.870;4.606;2022-12-24T04:36:01;16.25;;;2.65;;
68821;SDS011;55834;50.870;4.606;2022-12-24T04:38:28;18.17;;;3.33;;
68821;SDS011;55834;50.870;4.606;2022-12-24T04:41:01;15.15;;;3.30;;
68821;SDS011;55834;50.870;4.606;2022-12-24T04:43:46;14.43;;;3.75;;
68821;SDS011;55834;50.870;4.606;2022-12-24T04:46:12;13.38;;;1.85;;
68821;SDS011;55834;50.870;4.606;2022-12-24T04:48:46;8.48;;;1.90;;
68821;SDS011;55834;50.870;4.606;2022-12-24T04:53:38;10.35;;;2.15;;
68821;SDS011;55834;50.870;4.606;2022-12-24T04:56:10;15.60;;;3.75;;
68821;SDS011;55834;50.870;4.606;2022-12-24T04:58:37;12.93;;;2.55;;
68821;SDS011;55834;50.870;4.606;2022-12-24T05:01:04;12.57;;;2.88;;
68821;SDS011;55834;50.870;4.606;2022-12-24T05:03:30;13.85;;;2.42;;
68821;SDS011;55834;50.870;4.606;2022-12-24T05:06:00;12.85;;;2.70;;
68821;SDS011;55834;50.870;4.606;2022-12-24T05:08:32;20.20;;;4.25;;
68821;SDS011;55834;50.870;4.606;2022-12-24T05:10:59;17.35;;;2.67;;
68821;SDS011;55834;50.870;4.606;2022-12-24T05:13:25;11.27;;;2.10;;
68821;SDS011;55834;50.870;4.606;2022-12-24T05:15:52;15.63;;;2.90;;
68821;SDS011;55834;50.870;4.606;2022-12-24T05:18:17;16.15;;;4.95;;
68821;SDS011;55834;50.870;4.606;2022-12-24T05:20:43;16.27;;;3.00;;
68821;SDS011;55834;50.870;4.606;2022-12-24T05:23:09;8.27;;;2.07;;
68821;SDS011;55834;50.870;4.606;2022-12-24T05:25:59;22.55;;;4.00;;
68821;SDS011;55834;50.870;4.606;2022-12-24T05:28:43;14.98;;;3.15;;
68821;SDS011;55834;50.870;4.606;2022-12-24T05:31:08;17.60;;;3.07;;
68821;SDS011;55834;50.870;4.606;2022-12-24T05:33:34;15.43;;;3.37;;
68821;SDS011;55834;50.870;4.606;2022-12-24T05:35:59;8.87;;;1.83;;
68821;SDS011;55834;50.870;4.606;2022-12-24T05:38:24;11.67;;;3.03;;
68821;SDS011;55834;50.870;4.606;2022-12-24T05:40:49;15.07;;;3.90;;
68821;SDS011;55834;50.870;4.606;2022-12-24T05:43:15;15.30;;;2.50;;
68821;SDS011;55834;50.870;4.606;2022-12-24T05:45:40;17.73;;;2.87;;
68821;SDS011;55834;50.870;4.606;2022-12-24T05:48:05;14.13;;;3.33;;
68821;SDS011;55834;50.870;4.606;2022-12-24T05:50:32;19.15;;;2.95;;
68821;SDS011;55834;50.870;4.606;2022-12-24T05:52:57;21.27;;;4.18;;
68821;SDS011;55834;50.870;4.606;2022-12-24T05:55:23;6.87;;;2.20;;
68821;SDS011;55834;50.870;4.606;2022-12-24T05:57:48;16.97;;;2.33;;
68821;SDS011;55834;50.870;4.606;2022-12-24T06:00:13;13.63;;;3.47;;
68821;SDS011;55834;50.870;4.606;2022-12-24T06:02:39;21.45;;;3.75;;
68821;SDS011;55834;50.870;4.606;2022-12-24T06:05:04;13.63;;;3.77;;
68821;SDS011;55834;50.870;4.606;2022-12-24T06:07:30;13.95;;;3.42;;
68821;SDS011;55834;50.870;4.606;2022-12-24T06:09:55;13.60;;;2.50;;
68821;SDS011;55834;50.870;4.606;2022-12-24T06:12:20;14.30;;;3.43;;
68821;SDS011;55834;50.870;4.606;2022-12-24T06:14:46;17.87;;;3.23;;
68821;SDS011;55834;50.870;4.606;2022-12-24T06:17:11;14.13;;;3.13;;
68821;SDS011;55834;50.870;4.606;2022-12-24T06:19:36;14.37;;;3.33;;
68821;SDS011;55834;50.870;4.606;2022-12-24T06:22:02;14.23;;;2.53;;
68821;SDS011;55834;50.870;4.606;2022-12-24T06:24:27;9.87;;;2.40;;
68821;SDS011;55834;50.870;4.606;2022-12-24T06:26:52;11.20;;;3.07;;
68821;SDS011;55834;50.870;4.606;2022-12-24T06:29:18;18.97;;;2.70;;
68821;SDS011;55834;50.870;4.606;2022-12-24T06:31:43;18.97;;;4.07;;
68821;SDS011;55834;50.870;4.606;2022-12-24T06:34:08;13.70;;;2.90;;
68821;SDS011;55834;50.870;4.606;2022-12-24T06:36:33;17.07;;;3.57;;
68821;SDS011;55834;50.870;4.606;2022-12-24T06:38:59;15.77;;;2.60;;
68821;SDS011;55834;50.870;4.606;2022-12-24T06:41:24;8.43;;;2.17;;
68821;SDS011;55834;50.870;4.606;2022-12-24T06:43:50;14.70;;;2.60;;
68821;SDS011;55834;50.870;4.606;2022-12-24T06:46:17;14.18;;;2.30;;
68821;SDS011;55834;50.870;4.606;2022-12-24T06:48:44;12.27;;;2.22;;
68821;SDS011;55834;50.870;4.606;2022-12-24T06:51:10;15.18;;;2.78;;
68821;SDS011;55834;50.870;4.606;2022-12-24T06:53:36;13.48;;;2.97;;
68821;SDS011;55834;50.870;4.606;2022-12-24T06:56:06;11.93;;;2.72;;
68821;SDS011;55834;50.870;4.606;2022-12-24T06:58:33;17.70;;;2.83;;
68821;SDS011;55834;50.870;4.606;2022-12-24T07:01:00;14.27;;;2.60;;
68821;SDS011;55834;50.870;4.606;2022-12-24T07:03:27;17.52;;;2.75;;
68821;SDS011;55834;50.870;4.606;2022-12-24T07:05:53;18.13;;;3.22;;
68821;SDS011;55834;50.870;4.606;2022-12-24T07:08:18;14.57;;;3.47;;
68821;SDS011;55834;50.870;4.606;2022-12-24T07:10:43;17.23;;;2.93;;
68821;SDS011;55834;50.870;4.606;2022-12-24T07:13:09;13.23;;;2.37;;
68821;SDS011;55834;50.870;4.606;2022-12-24T07:15:34;16.37;;;3.53;;
68821;SDS011;55834;50.870;4.606;2022-12-24T07:17:59;14.33;;;3.67;;
68821;SDS011;55834;50.870;4.606;2022-12-24T07:20:25;16.30;;;3.27;;
68821;SDS011;55834;50.870;4.606;2022-12-24T07:22:50;10.97;;;2.97;;
68821;SDS011;55834;50.870;4.606;2022-12-24T07:25:15;12.80;;;4.30;;
68821;SDS011;55834;50.870;4.606;2022-12-24T07:27:41;13.25;;;2.15;;
68821;SDS011;55834;50.870;4.606;2022-12-24T07:30:07;11.75;;;2.65;;
68821;SDS011;55834;50.870;4.606;2022-12-24T07:32:33;19.45;;;4.15;;
68821;SDS011;55834;50.870;4.606;2022-12-24T07:34:59;12.52;;;3.00;;
68821;SDS011;55834;50.870;4.606;2022-12-24T07:37:24;17.93;;;5.33;;
68821;SDS011;55834;50.870;4.606;2022-12-24T07:39:51;18.23;;;4.00;;
68821;SDS011;55834;50.870;4.606;2022-12-24T07:42:16;16.87;;;3.30;;
68821;SDS011;55834;50.870;4.606;2022-12-24T07:44:41;15.33;;;2.93;;
68821;SDS011;55834;50.870;4.606;2022-12-24T07:47:07;15.20;;;3.73;;
68821;SDS011;55834;50.870;4.606;2022-12-24T07:49:32;17.97;;;3.30;;
68821;SDS011;55834;50.870;4.606;2022-12-24T07:51:58;10.90;;;2.60;;
68821;SDS011;55834;50.870;4.606;2022-12-24T07:54:24;14.47;;;2.57;;
68821;SDS011;55834;50.870;4.606;2022-12-24T07:56:49;9.30;;;2.17;;
68821;SDS011;55834;50.870;4.606;2022-12-24T07:59:14;16.23;;;2.97;;
68821;SDS011;55834;50.870;4.606;2022-12-24T08:04:15;20.60;;;4.65;;
68821;SDS011;55834;50.870;4.606;2022-12-24T08:06:40;20.00;;;4.67;;
68821;SDS011;55834;50.870;4.606;2022-12-24T08:09:05;13.13;;;2.93;;
68821;SDS011;55834;50.870;4.606;2022-12-24T08:11:31;21.90;;;4.00;;
68821;SDS011;55834;50.870;4.606;2022-12-24T08:13:56;15.90;;;3.40;;
68821;SDS011;55834;50.870;4.606;2022-12-24T08:16:21;16.70;;;2.60;;
68821;SDS011;55834;50.870;4.606;2022-12-24T08:18:47;17.67;;;3.05;;
68821;SDS011;55834;50.870;4.606;2022-12-24T08:21:12;12.63;;;2.40;;
68821;SDS011;55834;50.870;4.606;2022-12-24T08:23:38;9.03;;;2.43;;
68821;SDS011;55834;50.870;4.606;2022-12-24T08:26:05;19.88;;;3.58;;
68821;SDS011;55834;50.870;4.606;2022-12-24T08:28:31;13.95;;;2.60;;
68821;SDS011;55834;50.870;4.606;2022-12-24T08:30:57;11.55;;;2.92;;
68821;SDS011;55834;50.870;4.606;2022-12-24T08:33:23;21.58;;;3.03;;
68821;SDS011;55834;50.870;4.606;2022-12-24T08:35:49;18.60;;;3.42;;
68821;SDS011;55834;50.870;4.606;2022-12-24T08:38:15;14.15;;;3.78;;
68821;SDS011;55834;50.870;4.606;2022-12-24T08:40:41;14.38;;;3.83;;
68821;SDS011;55834;50.870;4.606;2022-12-24T08:43:07;26.92;;;4.85;;
68821;SDS011;55834;50.870;4.606;2022-12-24T08:45:32;13.70;;;2.85;;
68821;SDS011;55834;50.870;4.606;2022-12-24T08:47:58;13.90;;;2.70;;
68821;SDS011;55834;50.870;4.606;2022-12-24T08:50:24;13.35;;;2.20;;
68821;SDS011;55834;50.870;4.606;2022-12-24T08:52:50;18.02;;;3.20;;
68821;SDS011;55834;50.870;4.606;2022-12-24T08:55:15;16.10;;;3.60;;
68821;SDS011;55834;50.870;4.606;2022-12-24T08:57:41;10.23;;;2.40;;
68821;SDS011;55834;50.870;4.606;2022-12-24T09:00:07;11.83;;;2.17;;
68821;SDS011;55834;50.870;4.606;2022-12-24T09:02:33;21.88;;;3.83;;
68821;SDS011;55834;50.870;4.606;2022-12-24T09:04:59;12.70;;;2.63;;
68821;SDS011;55834;50.870;4.606;2022-12-24T09:07:24;21.85;;;4.97;;
68821;SDS011;55834;50.870;4.606;2022-12-24T09:09:50;16.65;;;3.22;;
68821;SDS011;55834;50.870;4.606;2022-12-24T09:12:15;17.97;;;3.13;;
68821;SDS011;55834;50.870;4.606;2022-12-24T09:14:40;10.90;;;3.60;;
68821;SDS011;55834;50.870;4.606;2022-12-24T09:17:06;16.90;;;3.87;;
68821;SDS011;55834;50.870;4.606;2022-12-24T09:19:31;17.73;;;2.30;;
68821;SDS011;55834;50.870;4.606;2022-12-24T09:21:56;14.50;;;3.17;;
68821;SDS011;55834;50.870;4.606;2022-12-24T09:24:22;12.73;;;2.83;;
68821;SDS011;55834;50.870;4.606;2022-12-24T09:26:47;17.83;;;3.50;;
68821;SDS011;55834;50.870;4.606;2022-12-24T09:29:13;24.02;;;4.55;;
68821;SDS011;55834;50.870;4.606;2022-12-24T09:31:39;16.30;;;3.88;;
68821;SDS011;55834;50.870;4.606;2022-12-24T09:34:05;19.50;;;4.53;;
68821;SDS011;55834;50.870;4.606;2022-12-24T09:36:30;8.55;;;2.42;;
68821;SDS011;55834;50.870;4.606;2022-12-24T09:38:56;15.33;;;3.67;;
68821;SDS011;55834;50.870;4.606;2022-12-24T09:43:47;18.00;;;3.07;;
68821;SDS011;55834;50.870;4.606;2022-12-24T09:49:02;16.25;;;2.65;;
68821;SDS011;55834;50.870;4.606;2022-12-24T09:56:41;11.45;;;3.92;;
68821;SDS011;55834;50.870;4.606;2022-12-24T09:59:09;16.55;;;3.78;;
68821;SDS011;55834;50.870;4.606;2022-12-24T10:01:38;12.57;;;3.25;;
68821;SDS011;55834;50.870;4.606;2022-12-24T10:04:08;19.23;;;3.97;;
68821;SDS011;55834;50.870;4.606;2022-12-24T10:06:46;18.73;;;3.63;;
68821;SDS011;55834;50.870;4.606;2022-12-24T10:09:31;19.75;;;4.10;;
68821;SDS011;55834;50.870;4.606;2022-12-24T10:20:24;14.07;;;2.63;;
68821;SDS011;55834;50.870;4.606;2022-12-24T10:23:13;16.35;;;3.08;;
68821;SDS011;55834;50.870;4.606;2022-12-24T10:28:22;17.65;;;2.65;;
68821;SDS011;55834;50.870;4.606;2022-12-24T10:30:56;13.00;;;3.05;;
68821;SDS011;55834;50.870;4.606;2022-12-24T10:33:37;20.95;;;3.47;;
68821;SDS011;55834;50.870;4.606;2022-12-24T10:36:08;10.43;;;3.20;;
68821;SDS011;55834;50.870;4.606;2022-12-24T10:38:39;10.98;;;2.80;;
68821;SDS011;55834;50.870;4.606;2022-12-24T10:41:04;14.83;;;3.57;;
68821;SDS011;55834;50.870;4.606;2022-12-24T10:43:30;22.73;;;2.97;;
68821;SDS011;55834;50.870;4.606;2022-12-24T10:45:56;12.43;;;3.17;;
68821;SDS011;55834;50.870;4.606;2022-12-24T10:48:34;11.20;;;2.58;;
68821;SDS011;55834;50.870;4.606;2022-12-24T10:56:13;17.77;;;3.25;;
68821;SDS011;55834;50.870;4.606;2022-12-24T10:58:44;11.48;;;2.17;;
68821;SDS011;55834;50.870;4.606;2022-12-24T11:01:14;12.05;;;2.65;;
68821;SDS011;55834;50.870;4.606;2022-12-24T11:03:39;15.90;;;2.70;;
68821;SDS011;55834;50.870;4.606;2022-12-24T11:06:07;20.35;;;3.58;;
68821;SDS011;55834;50.870;4.606;2022-12-24T11:08:39;13.25;;;3.10;;
68821;SDS011;55834;50.870;4.606;2022-12-24T11:11:15;18.42;;;2.50;;
68821;SDS011;55834;50.870;4.606;2022-12-24T11:13:43;13.65;;;3.10;;
68821;SDS011;55834;50.870;4.606;2022-12-24T11:16:33;22.83;;;4.53;;
68821;SDS011;55834;50.870;4.606;2022-12-24T11:19:01;11.90;;;2.58;;
68821;SDS011;55834;50.870;4.606;2022-12-24T11:21:33;11.68;;;3.92;;
68821;SDS011;55834;50.870;4.606;2022-12-24T11:24:06;21.35;;;3.95;;
68821;SDS011;55834;50.870;4.606;2022-12-24T11:26:32;14.40;;;4.15;;
68821;SDS011;55834;50.870;4.606;2022-12-24T11:31:32;13.38;;;3.40;;
68821;SDS011;55834;50.870;4.606;2022-12-24T11:34:02;19.38;;;3.22;;
68821;SDS011;55834;50.870;4.606;2022-12-24T11:36:42;15.75;;;3.50;;
68821;SDS011;55834;50.870;4.606;2022-12-24T11:39:09;14.43;;;2.95;;
68821;SDS011;55834;50.870;4.606;2022-12-24T11:41:43;14.85;;;2.97;;
68821;SDS011;55834;50.870;4.606;2022-12-24T11:44:08;12.53;;;1.70;;
68821;SDS011;55834;50.870;4.606;2022-12-24T11:46:41;19.67;;;4.22;;
68821;SDS011;55834;50.870;4.606;2022-12-24T11:51:35;14.10;;;3.23;;
68821;SDS011;55834;50.870;4.606;2022-12-24T11:56:48;16.92;;;4.53;;
68821;SDS011;55834;50.870;4.606;2022-12-24T11:59:29;18.73;;;2.97;;
68821;SDS011;55834;50.870;4.606;2022-12-24T12:04:39;12.20;;;2.65;;
68821;SDS011;55834;50.870;4.606;2022-12-24T12:09:49;18.42;;;3.50;;
68821;SDS011;55834;50.870;4.606;2022-12-24T12:12:23;8.63;;;2.35;;
68821;SDS011;55834;50.870;4.606;2022-12-24T12:19:51;21.97;;;4.27;;
68821;SDS011;55834;50.870;4.606;2022-12-24T12:22:37;13.05;;;2.42;;
68821;SDS011;55834;50.870;4.606;2022-12-24T12:28:07;11.57;;;2.50;;
68821;SDS011;55834;50.870;4.606;2022-12-24T12:30:42;12.05;;;1.80;;
68821;SDS011;55834;50.870;4.606;2022-12-24T12:35:46;14.45;;;3.55;;
68821;SDS011;55834;50.870;4.606;2022-12-24T12:38:16;6.25;;;1.58;;
68821;SDS011;55834;50.870;4.606;2022-12-24T12:43:34;13.35;;;2.13;;
68821;SDS011;55834;50.870;4.606;2022-12-24T12:49:27;14.43;;;3.22;;
68821;SDS011;55834;50.870;4.606;2022-12-24T12:55:30;19.83;;;4.43;;
68821;SDS011;55834;50.870;4.606;2022-12-24T12:58:20;12.05;;;3.20;;
68821;SDS011;55834;50.870;4.606;2022-12-24T13:00:52;17.83;;;4.43;;
68821;SDS011;55834;50.870;4.606;2022-12-24T13:03:28;17.17;;;2.70;;
68821;SDS011;55834;50.870;4.606;2022-12-24T13:20:13;16.55;;;3.75;;
68821;SDS011;55834;50.870;4.606;2022-12-24T13:22:47;14.35;;;3.50;;
68821;SDS011;55834;50.870;4.606;2022-12-24T13:25:19;13.18;;;3.45;;
68821;SDS011;55834;50.870;4.606;2022-12-24T13:27:46;16.33;;;3.55;;
68821;SDS011;55834;50.870;4.606;2022-12-24T13:30:31;13.02;;;3.20;;
68821;SDS011;55834;50.870;4.606;2022-12-24T13:33:04;8.75;;;2.10;;
68821;SDS011;55834;50.870;4.606;2022-12-24T13:35:33;18.02;;;3.28;;
68821;SDS011;55834;50.870;4.606;2022-12-24T13:40:54;12.82;;;2.20;;
68821;SDS011;55834;50.870;4.606;2022-12-24T13:43:20;18.17;;;2.78;;
68821;SDS011;55834;50.870;4.606;2022-12-24T13:45:49;17.15;;;2.45;;
68821;SDS011;55834;50.870;4.606;2022-12-24T13:48:32;11.88;;;2.83;;
68821;SDS011;55834;50.870;4.606;2022-12-24T13:50:59;10.60;;;2.45;;
68821;SDS011;55834;50.870;4.606;2022-12-24T13:53:43;17.23;;;2.88;;
68821;SDS011;55834;50.870;4.606;2022-12-24T13:58:36;13.90;;;2.90;;
68821;SDS011;55834;50.870;4.606;2022-12-24T14:01:07;11.82;;;2.90;;
68821;SDS011;55834;50.870;4.606;2022-12-24T14:03:45;17.00;;;3.33;;
68821;SDS011;55834;50.870;4.606;2022-12-24T14:06:28;21.02;;;4.22;;
68821;SDS011;55834;50.870;4.606;2022-12-24T14:09:17;14.23;;;2.95;;
68821;SDS011;55834;50.870;4.606;2022-12-24T14:14:34;14.63;;;3.17;;
68821;SDS011;55834;50.870;4.606;2022-12-24T14:17:25;22.73;;;4.07;;
68821;SDS011;55834;50.870;4.606;2022-12-24T14:19:57;14.85;;;3.22;;
68821;SDS011;55834;50.870;4.606;2022-12-24T14:22:35;11.50;;;3.47;;
68821;SDS011;55834;50.870;4.606;2022-12-24T14:25:12;17.13;;;2.47;;
68821;SDS011;55834;50.870;4.606;2022-12-24T14:27:42;18.05;;;3.10;;
68821;SDS011;55834;50.870;4.606;2022-12-24T14:32:44;18.50;;;3.28;;
68821;SDS011;55834;50.870;4.606;2022-12-24T14:35:29;14.55;;;2.83;;
68821;SDS011;55834;50.870;4.606;2022-12-24T14:38:03;18.70;;;3.20;;
68821;SDS011;55834;50.870;4.606;2022-12-24T14:40:36;10.88;;;2.38;;
68821;SDS011;55834;50.870;4.606;2022-12-24T14:46:41;17.73;;;3.00;;
68821;SDS011;55834;50.870;4.606;2022-12-24T14:54:45;12.27;;;2.80;;
68821;SDS011;55834;50.870;4.606;2022-12-24T14:57:13;12.75;;;2.78;;
68821;SDS011;55834;50.870;4.606;2022-12-24T14:59:51;17.13;;;4.70;;
68821;SDS011;55834;50.870;4.606;2022-12-24T15:02:36;10.60;;;3.65;;
68821;SDS011;55834;50.870;4.606;2022-12-24T15:05:16;10.43;;;3.05;;
68821;SDS011;55834;50.870;4.606;2022-12-24T15:10:37;12.15;;;3.75;;
68821;SDS011;55834;50.870;4.606;2022-12-24T15:13:14;15.10;;;4.10;;
68821;SDS011;55834;50.870;4.606;2022-12-24T15:15:51;14.75;;;3.97;;
68821;SDS011;55834;50.870;4.606;2022-12-24T15:18:19;16.23;;;3.88;;
68821;SDS011;55834;50.870;4.606;2022-12-24T15:20:49;14.00;;;4.65;;
68821;SDS011;55834;50.870;4.606;2022-12-24T15:23:20;10.38;;;3.47;;
68821;SDS011;55834;50.870;4.606;2022-12-24T15:28:37;8.02;;;2.85;;
68821;SDS011;55834;50.870;4.606;2022-12-24T15:31:05;9.70;;;3.63;;
68821;SDS011;55834;50.870;4.606;2022-12-24T15:33:35;18.15;;;4.10;;
68821;SDS011;55834;50.870;4.606;2022-12-24T15:36:01;10.38;;;2.40;;
68821;SDS011;55834;50.870;4.606;2022-12-24T15:38:35;13.88;;;2.78;;
68821;SDS011;55834;50.870;4.606;2022-12-24T15:41:05;8.70;;;3.63;;
68821;SDS011;55834;50.870;4.606;2022-12-24T15:43:39;7.50;;;2.47;;
68821;SDS011;55834;50.870;4.606;2022-12-24T15:46:06;16.08;;;4.25;;
68821;SDS011;55834;50.870;4.606;2022-12-24T15:48:31;13.65;;;3.60;;
68821;SDS011;55834;50.870;4.606;2022-12-24T15:50:58;13.55;;;3.85;;
68821;SDS011;55834;50.870;4.606;2022-12-24T15:53:30;9.00;;;3.20;;
68821;SDS011;55834;50.870;4.606;2022-12-24T16:01:05;9.82;;;4.00;;
68821;SDS011;55834;50.870;4.606;2022-12-24T16:06:15;17.30;;;4.80;;
68821;SDS011;55834;50.870;4.606;2022-12-24T16:08:41;18.73;;;6.55;;
68821;SDS011;55834;50.870;4.606;2022-12-24T16:11:32;11.18;;;3.85;;
68821;SDS011;55834;50.870;4.606;2022-12-24T16:16:30;11.45;;;3.95;;
68821;SDS011;55834;50.870;4.606;2022-12-24T16:18:58;11.15;;;4.28;;
68821;SDS011;55834;50.870;4.606;2022-12-24T16:23:54;16.45;;;4.95;;
68821;SDS011;55834;50.870;4.606;2022-12-24T16:26:22;14.32;;;5.35;;
68821;SDS011;55834;50.870;4.606;2022-12-24T16:28:47;20.37;;;4.87;;
68821;SDS011;55834;50.870;4.606;2022-12-24T16:31:16;12.32;;;3.70;;
68821;SDS011;55834;50.870;4.606;2022-12-24T16:33:44;19.42;;;4.97;;
68821;SDS011;55834;50.870;4.606;2022-12-24T16:36:10;14.15;;;4.43;;
68821;SDS011;55834;50.870;4.606;2022-12-24T16:38:36;15.32;;;5.85;;
68821;SDS011;55834;50.870;4.606;2022-12-24T16:41:21;11.05;;;4.30;;
68821;SDS011;55834;50.870;4.606;2022-12-24T16:43:47;15.95;;;4.63;;
68821;SDS011;55834;50.870;4.606;2022-12-24T16:46:15;18.10;;;5.50;;
68821;SDS011;55834;50.870;4.606;2022-12-24T16:48:41;32.38;;;9.35;;
68821;SDS011;55834;50.870;4.606;2022-12-24T16:51:12;41.15;;;12.10;;
68821;SDS011;55834;50.870;4.606;2022-12-24T16:53:40;33.50;;;9.80;;
68821;SDS011;55834;50.870;4.606;2022-12-24T16:56:06;36.20;;;11.05;;
68821;SDS011;55834;50.870;4.606;2022-12-24T16:58:31;27.83;;;10.65;;
68821;SDS011;55834;50.870;4.606;2022-12-24T17:00:56;35.20;;;12.30;;
68821;SDS011;55834;50.870;4.606;2022-12-24T17:03:23;23.85;;;8.63;;
68821;SDS011;55834;50.870;4.606;2022-12-24T17:05:48;29.57;;;10.07;;
68821;SDS011;55834;50.870;4.606;2022-12-24T17:08:14;28.97;;;7.23;;
68821;SDS011;55834;50.870;4.606;2022-12-24T17:10:39;22.53;;;8.73;;
68821;SDS011;55834;50.870;4.606;2022-12-24T17:13:05;20.23;;;6.50;;
68821;SDS011;55834;50.870;4.606;2022-12-24T17:15:30;37.90;;;12.15;;
68821;SDS011;55834;50.870;4.606;2022-12-24T17:17:56;38.30;;;11.30;;